sensor_id;sensor_type;location;lat;lon;timestamp;temperature;humidity
2022;DHT22;1015;49.756;6.994;2022-09-27T00:02:20;7.90;99.90
2022;DHT22;1015;49.756;6.994;2022-09-27T00:04:47;7.90;99.90
2022;DHT22;1015;49.756;6.994;2022-09-27T00:07:14;7.90;99.90
2022;DHT22;1015;49.756;6.994;2022-09-27T00:09:41;7.90;99.90
2022;DHT22;1015;49.756;6.994;2022-09-27T00:12:08;7.80;99.90
2022;DHT22;1015;49.756;6.994;2022-09-27T00:14:35;7.90;99.90
2022;DHT22;1015;49.756;6.994;2022-09-27T00:17:03;7.80;99.90
2022;DHT22;1015;49.756;6.994;2022-09-27T00:19:30;7.80;99.90
2022;DHT22;1015;49.756;6.994;2022-09-27T00:21:57;7.80;99.90
2022;DHT22;1015;49.756;6.994;2022-09-27T00:24:26;7.80;99.90
2022;DHT22;1015;49.756;6.994;2022-09-27T00:26:53;7.70;99.90
2022;DHT22;1015;49.756;6.994;2022-09-27T00:29:20;7.80;99.90
2022;DHT22;1015;49.756;6.994;2022-09-27T00:31:46;7.80;99.90
2022;DHT22;1015;49.756;6.994;2022-09-27T00:34:18;7.80;99.90
2022;DHT22;1015;49.756;6.994;2022-09-27T00:36:46;7.70;99.90
2022;DHT22;1015;49.756;6.994;2022-09-27T00:39:13;7.70;99.90
2022;DHT22;1015;49.756;6.994;2022-09-27T00:41:40;7.70;99.90
2022;DHT22;1015;49.756;6.994;2022-09-27T00:47:11;7.80;99.90
2022;DHT22;1015;49.756;6.994;2022-09-27T00:49:45;7.70;99.90
2022;DHT22;1015;49.756;6.994;2022-09-27T00:52:16;7.70;99.90
2022;DHT22;1015;49.756;6.994;2022-09-27T00:54:48;7.70;99.90
2022;DHT22;1015;49.756;6.994;2022-09-27T00:57:17;7.60;99.90
2022;DHT22;1015;49.756;6.994;2022-09-27T00:59:46;7.70;99.90
2022;DHT22;1015;49.756;6.994;2022-09-27T01:02:15;7.60;99.90
2022;DHT22;1015;49.756;6.994;2022-09-27T01:04:44;7.60;99.90
2022;DHT22;1015;49.756;6.994;2022-09-27T01:07:12;7.60;99.90
2022;DHT22;1015;49.756;6.994;2022-09-27T01:09:39;7.60;99.90
2022;DHT22;1015;49.756;6.994;2022-09-27T01:12:12;7.50;99.90
2022;DHT22;1015;49.756;6.994;2022-09-27T01:14:59;7.50;99.90
2022;DHT22;1015;49.756;6.994;2022-09-27T01:17:37;7.50;99.90
2022;DHT22;1015;49.756;6.994;2022-09-27T01:20:40;7.50;99.90
2022;DHT22;1015;49.756;6.994;2022-09-27T01:23:24;7.50;99.90
2022;DHT22;1015;49.756;6.994;2022-09-27T01:26:08;7.50;99.90
2022;DHT22;1015;49.756;6.994;2022-09-27T01:28:47;7.50;99.90
2022;DHT22;1015;49.756;6.994;2022-09-27T01:31:20;7.40;99.90
2022;DHT22;1015;49.756;6.994;2022-09-27T01:33:56;7.50;99.90
2022;DHT22;1015;49.756;6.994;2022-09-27T01:36:34;7.40;99.90
2022;DHT22;1015;49.756;6.994;2022-09-27T01:39:11;7.40;99.90
2022;DHT22;1015;49.756;6.994;2022-09-27T01:41:45;7.30;99.90
2022;DHT22;1015;49.756;6.994;2022-09-27T01:44:21;7.40;99.90
2022;DHT22;1015;49.756;6.994;2022-09-27T01:46:53;7.30;99.90
2022;DHT22;1015;49.756;6.994;2022-09-27T01:49:26;7.30;99.90
2022;DHT22;1015;49.756;6.994;2022-09-27T01:51:57;7.20;99.90
2022;DHT22;1015;49.756;6.994;2022-09-27T01:54:30;7.20;99.90
2022;DHT22;1015;49.756;6.994;2022-09-27T01:57:00;7.20;99.90
2022;DHT22;1015;49.756;6.994;2022-09-27T01:59:32;7.10;99.90
2022;DHT22;1015;49.756;6.994;2022-09-27T02:02:07;7.20;99.90
2022;DHT22;1015;49.756;6.994;2022-09-27T02:04:37;7.20;99.90
2022;DHT22;1015;49.756;6.994;2022-09-27T02:07:12;7.20;99.90
2022;DHT22;1015;49.756;6.994;2022-09-27T02:09:45;7.20;99.90
2022;DHT22;1015;49.756;6.994;2022-09-27T02:12:18;7.10;99.90
2022;DHT22;1015;49.756;6.994;2022-09-27T02:14:49;7.10;99.90
2022;DHT22;1015;49.756;6.994;2022-09-27T02:17:24;7.00;99.90
2022;DHT22;1015;49.756;6.994;2022-09-27T02:20:00;7.00;99.90
2022;DHT22;1015;49.756;6.994;2022-09-27T02:22:33;7.00;99.90
2022;DHT22;1015;49.756;6.994;2022-09-27T02:25:07;7.00;99.90
2022;DHT22;1015;49.756;6.994;2022-09-27T02:27:41;7.00;99.90
2022;DHT22;1015;49.756;6.994;2022-09-27T02:30:12;7.00;99.90
2022;DHT22;1015;49.756;6.994;2022-09-27T02:32:42;7.00;99.90
2022;DHT22;1015;49.756;6.994;2022-09-27T02:35:12;7.00;99.90
2022;DHT22;1015;49.756;6.994;2022-09-27T02:37:41;7.00;99.90
2022;DHT22;1015;49.756;6.994;2022-09-27T02:40:09;7.00;99.90
2022;DHT22;1015;49.756;6.994;2022-09-27T02:42:36;7.00;99.90
2022;DHT22;1015;49.756;6.994;2022-09-27T02:45:04;6.90;99.90
2022;DHT22;1015;49.756;6.994;2022-09-27T02:47:52;6.90;99.90
2022;DHT22;1015;49.756;6.994;2022-09-27T02:50:43;6.90;99.90
2022;DHT22;1015;49.756;6.994;2022-09-27T02:53:21;6.80;99.90
2022;DHT22;1015;49.756;6.994;2022-09-27T02:55:58;6.80;99.90
2022;DHT22;1015;49.756;6.994;2022-09-27T02:58:34;6.80;99.90
2022;DHT22;1015;49.756;6.994;2022-09-27T03:01:10;6.90;99.90
2022;DHT22;1015;49.756;6.994;2022-09-27T03:03:45;6.80;99.90
2022;DHT22;1015;49.756;6.994;2022-09-27T03:06:17;6.80;99.90
2022;DHT22;1015;49.756;6.994;2022-09-27T03:08:45;6.80;99.90
2022;DHT22;1015;49.756;6.994;2022-09-27T03:11:13;6.80;99.90
2022;DHT22;1015;49.756;6.994;2022-09-27T03:13:40;6.90;99.90
2022;DHT22;1015;49.756;6.994;2022-09-27T03:16:07;6.90;99.90
2022;DHT22;1015;49.756;6.994;2022-09-27T03:18:34;6.80;99.90
2022;DHT22;1015;49.756;6.994;2022-09-27T03:21:02;6.80;99.90
2022;DHT22;1015;49.756;6.994;2022-09-27T03:23:29;6.80;99.90
2022;DHT22;1015;49.756;6.994;2022-09-27T03:25:56;6.70;99.90
2022;DHT22;1015;49.756;6.994;2022-09-27T03:28:23;6.80;99.90
2022;DHT22;1015;49.756;6.994;2022-09-27T03:30:50;6.80;99.90
2022;DHT22;1015;49.756;6.994;2022-09-27T03:33:17;6.80;99.90
2022;DHT22;1015;49.756;6.994;2022-09-27T03:35:44;6.70;99.90
2022;DHT22;1015;49.756;6.994;2022-09-27T03:38:12;6.80;99.90
2022;DHT22;1015;49.756;6.994;2022-09-27T03:40:39;6.80;99.90
2022;DHT22;1015;49.756;6.994;2022-09-27T03:43:06;6.80;99.90
2022;DHT22;1015;49.756;6.994;2022-09-27T03:45:33;6.80;99.90
2022;DHT22;1015;49.756;6.994;2022-09-27T03:48:00;6.80;99.90
2022;DHT22;1015;49.756;6.994;2022-09-27T03:50:27;6.70;99.90
2022;DHT22;1015;49.756;6.994;2022-09-27T03:52:54;6.80;99.90
2022;DHT22;1015;49.756;6.994;2022-09-27T03:55:22;6.70;99.90
2022;DHT22;1015;49.756;6.994;2022-09-27T03:57:49;6.70;99.90
2022;DHT22;1015;49.756;6.994;2022-09-27T04:00:16;6.70;99.90
2022;DHT22;1015;49.756;6.994;2022-09-27T04:02:44;6.80;99.90
2022;DHT22;1015;49.756;6.994;2022-09-27T04:05:11;6.70;99.90
2022;DHT22;1015;49.756;6.994;2022-09-27T04:07:37;6.80;99.90
2022;DHT22;1015;49.756;6.994;2022-09-27T04:10:05;6.70;99.90
2022;DHT22;1015;49.756;6.994;2022-09-27T04:12:34;6.70;99.90
2022;DHT22;1015;49.756;6.994;2022-09-27T04:15:01;6.70;99.90
2022;DHT22;1015;49.756;6.994;2022-09-27T04:17:28;6.70;99.90
2022;DHT22;1015;49.756;6.994;2022-09-27T04:19:55;6.70;99.90
2022;DHT22;1015;49.756;6.994;2022-09-27T04:22:22;6.70;99.90
2022;DHT22;1015;49.756;6.994;2022-09-27T04:24:49;6.60;99.90
2022;DHT22;1015;49.756;6.994;2022-09-27T04:27:16;6.70;99.90
2022;DHT22;1015;49.756;6.994;2022-09-27T04:29:45;6.70;99.90
2022;DHT22;1015;49.756;6.994;2022-09-27T04:32:12;6.60;99.90
2022;DHT22;1015;49.756;6.994;2022-09-27T04:34:39;6.60;99.90
2022;DHT22;1015;49.756;6.994;2022-09-27T04:37:24;6.70;99.90
2022;DHT22;1015;49.756;6.994;2022-09-27T04:39:51;6.60;99.90
2022;DHT22;1015;49.756;6.994;2022-09-27T04:42:18;6.50;99.90
2022;DHT22;1015;49.756;6.994;2022-09-27T04:44:46;6.50;99.90
2022;DHT22;1015;49.756;6.994;2022-09-27T04:47:13;6.50;99.90
2022;DHT22;1015;49.756;6.994;2022-09-27T04:49:41;6.50;99.90
2022;DHT22;1015;49.756;6.994;2022-09-27T04:52:08;6.50;99.90
2022;DHT22;1015;49.756;6.994;2022-09-27T04:54:35;6.50;99.90
2022;DHT22;1015;49.756;6.994;2022-09-27T04:57:02;6.50;99.90
2022;DHT22;1015;49.756;6.994;2022-09-27T04:59:29;6.50;99.90
2022;DHT22;1015;49.756;6.994;2022-09-27T05:01:58;6.40;99.90
2022;DHT22;1015;49.756;6.994;2022-09-27T05:04:25;6.40;99.90
2022;DHT22;1015;49.756;6.994;2022-09-27T05:06:52;6.40;99.90
2022;DHT22;1015;49.756;6.994;2022-09-27T05:09:19;6.50;99.90
2022;DHT22;1015;49.756;6.994;2022-09-27T05:11:47;6.40;99.90
2022;DHT22;1015;49.756;6.994;2022-09-27T05:14:14;6.50;99.90
2022;DHT22;1015;49.756;6.994;2022-09-27T05:16:41;6.50;99.90
2022;DHT22;1015;49.756;6.994;2022-09-27T05:19:09;6.50;99.90
2022;DHT22;1015;49.756;6.994;2022-09-27T05:21:36;6.50;99.90
2022;DHT22;1015;49.756;6.994;2022-09-27T05:24:03;6.50;99.90
2022;DHT22;1015;49.756;6.994;2022-09-27T05:26:30;6.50;99.90
2022;DHT22;1015;49.756;6.994;2022-09-27T05:28:58;6.50;99.90
2022;DHT22;1015;49.756;6.994;2022-09-27T05:31:24;6.50;99.90
2022;DHT22;1015;49.756;6.994;2022-09-27T05:33:52;6.50;99.90
2022;DHT22;1015;49.756;6.994;2022-09-27T05:36:21;6.50;99.90
2022;DHT22;1015;49.756;6.994;2022-09-27T05:38:48;6.50;99.90
2022;DHT22;1015;49.756;6.994;2022-09-27T05:41:15;6.60;99.90
2022;DHT22;1015;49.756;6.994;2022-09-27T05:43:42;6.50;99.90
2022;DHT22;1015;49.756;6.994;2022-09-27T05:46:11;6.50;99.90
2022;DHT22;1015;49.756;6.994;2022-09-27T05:48:38;6.50;99.90
2022;DHT22;1015;49.756;6.994;2022-09-27T05:51:05;6.50;99.90
2022;DHT22;1015;49.756;6.994;2022-09-27T05:53:34;6.50;99.90
2022;DHT22;1015;49.756;6.994;2022-09-27T05:56:01;6.50;99.90
2022;DHT22;1015;49.756;6.994;2022-09-27T05:58:29;6.50;99.90
2022;DHT22;1015;49.756;6.994;2022-09-27T06:00:56;6.50;99.90
2022;DHT22;1015;49.756;6.994;2022-09-27T06:03:22;6.50;99.90
2022;DHT22;1015;49.756;6.994;2022-09-27T06:05:50;6.50;99.90
2022;DHT22;1015;49.756;6.994;2022-09-27T06:08:17;6.60;99.90
2022;DHT22;1015;49.756;6.994;2022-09-27T06:10:46;6.60;99.90
2022;DHT22;1015;49.756;6.994;2022-09-27T06:13:14;6.60;99.90
2022;DHT22;1015;49.756;6.994;2022-09-27T06:15:43;6.60;99.90
2022;DHT22;1015;49.756;6.994;2022-09-27T06:18:12;6.50;99.90
2022;DHT22;1015;49.756;6.994;2022-09-27T06:20:41;6.50;99.90
2022;DHT22;1015;49.756;6.994;2022-09-27T06:23:10;6.60;99.90
2022;DHT22;1015;49.756;6.994;2022-09-27T06:25:37;6.70;99.90
2022;DHT22;1015;49.756;6.994;2022-09-27T06:28:06;6.60;99.90
2022;DHT22;1015;49.756;6.994;2022-09-27T06:30:37;6.70;99.90
2022;DHT22;1015;49.756;6.994;2022-09-27T06:33:05;6.60;99.90
2022;DHT22;1015;49.756;6.994;2022-09-27T06:35:34;6.60;99.90
2022;DHT22;1015;49.756;6.994;2022-09-27T06:38:02;6.60;99.90
2022;DHT22;1015;49.756;6.994;2022-09-27T06:40:31;6.60;99.90
2022;DHT22;1015;49.756;6.994;2022-09-27T06:43:01;6.70;99.90
2022;DHT22;1015;49.756;6.994;2022-09-27T06:45:30;6.80;99.90
2022;DHT22;1015;49.756;6.994;2022-09-27T06:47:58;6.70;99.90
2022;DHT22;1015;49.756;6.994;2022-09-27T06:50:27;6.80;99.90
2022;DHT22;1015;49.756;6.994;2022-09-27T06:52:54;6.80;99.90
2022;DHT22;1015;49.756;6.994;2022-09-27T06:55:20;6.70;99.90
2022;DHT22;1015;49.756;6.994;2022-09-27T06:57:47;6.80;99.90
2022;DHT22;1015;49.756;6.994;2022-09-27T07:00:33;6.70;99.90
2022;DHT22;1015;49.756;6.994;2022-09-27T07:03:00;6.60;99.90
2022;DHT22;1015;49.756;6.994;2022-09-27T07:05:27;6.60;99.90
2022;DHT22;1015;49.756;6.994;2022-09-27T07:07:54;6.70;99.90
2022;DHT22;1015;49.756;6.994;2022-09-27T07:10:23;6.70;99.90
2022;DHT22;1015;49.756;6.994;2022-09-27T07:12:51;6.70;99.90
2022;DHT22;1015;49.756;6.994;2022-09-27T07:15:18;6.80;99.90
2022;DHT22;1015;49.756;6.994;2022-09-27T07:17:48;6.80;99.90
2022;DHT22;1015;49.756;6.994;2022-09-27T07:20:21;6.80;99.90
2022;DHT22;1015;49.756;6.994;2022-09-27T07:22:48;6.70;99.90
2022;DHT22;1015;49.756;6.994;2022-09-27T07:25:15;6.80;99.90
2022;DHT22;1015;49.756;6.994;2022-09-27T07:27:42;7.00;99.90
2022;DHT22;1015;49.756;6.994;2022-09-27T07:30:10;7.00;99.90
2022;DHT22;1015;49.756;6.994;2022-09-27T07:32:38;7.10;99.90
2022;DHT22;1015;49.756;6.994;2022-09-27T07:35:08;7.10;99.90
2022;DHT22;1015;49.756;6.994;2022-09-27T07:37:36;7.30;99.90
2022;DHT22;1015;49.756;6.994;2022-09-27T07:40:05;7.30;99.90
2022;DHT22;1015;49.756;6.994;2022-09-27T07:42:34;7.50;99.90
2022;DHT22;1015;49.756;6.994;2022-09-27T07:45:03;7.60;99.90
2022;DHT22;1015;49.756;6.994;2022-09-27T07:47:30;7.60;99.90
2022;DHT22;1015;49.756;6.994;2022-09-27T07:49:58;7.20;99.90
2022;DHT22;1015;49.756;6.994;2022-09-27T07:52:26;7.40;99.90
2022;DHT22;1015;49.756;6.994;2022-09-27T07:54:53;7.50;99.90
2022;DHT22;1015;49.756;6.994;2022-09-27T07:57:21;7.50;99.90
2022;DHT22;1015;49.756;6.994;2022-09-27T07:59:48;7.50;99.90
2022;DHT22;1015;49.756;6.994;2022-09-27T08:02:16;7.60;99.90
2022;DHT22;1015;49.756;6.994;2022-09-27T08:04:43;7.60;99.90
2022;DHT22;1015;49.756;6.994;2022-09-27T08:07:11;7.90;99.90
2022;DHT22;1015;49.756;6.994;2022-09-27T08:09:40;8.40;99.90
2022;DHT22;1015;49.756;6.994;2022-09-27T08:12:07;8.50;99.90
2022;DHT22;1015;49.756;6.994;2022-09-27T08:14:34;8.60;99.90
2022;DHT22;1015;49.756;6.994;2022-09-27T08:17:01;8.90;99.90
2022;DHT22;1015;49.756;6.994;2022-09-27T08:19:28;9.20;99.90
2022;DHT22;1015;49.756;6.994;2022-09-27T08:21:55;9.20;99.90
2022;DHT22;1015;49.756;6.994;2022-09-27T08:24:22;9.30;99.90
2022;DHT22;1015;49.756;6.994;2022-09-27T08:26:51;8.90;99.90
2022;DHT22;1015;49.756;6.994;2022-09-27T08:29:17;8.40;99.90
2022;DHT22;1015;49.756;6.994;2022-09-27T08:31:44;8.60;99.90
2022;DHT22;1015;49.756;6.994;2022-09-27T08:34:11;8.50;99.90
2022;DHT22;1015;49.756;6.994;2022-09-27T08:36:38;8.30;99.90
2022;DHT22;1015;49.756;6.994;2022-09-27T08:39:05;8.10;99.90
2022;DHT22;1015;49.756;6.994;2022-09-27T08:41:36;8.00;99.90
2022;DHT22;1015;49.756;6.994;2022-09-27T08:44:12;8.20;99.90
2022;DHT22;1015;49.756;6.994;2022-09-27T08:46:51;8.20;99.90
2022;DHT22;1015;49.756;6.994;2022-09-27T08:49:25;8.10;99.90
2022;DHT22;1015;49.756;6.994;2022-09-27T08:51:56;8.30;99.90
2022;DHT22;1015;49.756;6.994;2022-09-27T08:54:25;8.50;99.90
2022;DHT22;1015;49.756;6.994;2022-09-27T08:56:58;8.70;99.90
2022;DHT22;1015;49.756;6.994;2022-09-27T08:59:33;8.80;99.90
2022;DHT22;1015;49.756;6.994;2022-09-27T09:02:02;8.50;99.90
2022;DHT22;1015;49.756;6.994;2022-09-27T09:04:33;8.60;99.90
2022;DHT22;1015;49.756;6.994;2022-09-27T09:07:07;8.70;99.90
2022;DHT22;1015;49.756;6.994;2022-09-27T09:09:41;8.70;99.90
2022;DHT22;1015;49.756;6.994;2022-09-27T09:12:19;8.90;99.90
2022;DHT22;1015;49.756;6.994;2022-09-27T09:15:15;8.90;99.90
2022;DHT22;1015;49.756;6.994;2022-09-27T09:18:07;8.70;99.90
2022;DHT22;1015;49.756;6.994;2022-09-27T09:20:50;8.50;99.90
2022;DHT22;1015;49.756;6.994;2022-09-27T09:26:33;8.10;99.90
2022;DHT22;1015;49.756;6.994;2022-09-27T09:29:15;8.20;99.90
2022;DHT22;1015;49.756;6.994;2022-09-27T09:31:49;8.10;99.90
2022;DHT22;1015;49.756;6.994;2022-09-27T09:34:21;8.10;99.90
2022;DHT22;1015;49.756;6.994;2022-09-27T09:36:53;8.00;99.90
2022;DHT22;1015;49.756;6.994;2022-09-27T09:39:24;7.90;99.90
2022;DHT22;1015;49.756;6.994;2022-09-27T09:42:06;8.10;99.90
2022;DHT22;1015;49.756;6.994;2022-09-27T09:44:41;8.50;99.90
2022;DHT22;1015;49.756;6.994;2022-09-27T09:47:23;8.80;99.90
2022;DHT22;1015;49.756;6.994;2022-09-27T09:49:57;8.80;99.90
2022;DHT22;1015;49.756;6.994;2022-09-27T09:52:29;8.90;99.90
2022;DHT22;1015;49.756;6.994;2022-09-27T09:55:03;9.20;99.90
2022;DHT22;1015;49.756;6.994;2022-09-27T09:57:39;9.60;99.90
2022;DHT22;1015;49.756;6.994;2022-09-27T10:00:13;9.60;99.90
2022;DHT22;1015;49.756;6.994;2022-09-27T10:02:43;9.70;99.90
2022;DHT22;1015;49.756;6.994;2022-09-27T10:05:14;9.40;99.90
2022;DHT22;1015;49.756;6.994;2022-09-27T10:07:41;9.50;99.90
2022;DHT22;1015;49.756;6.994;2022-09-27T10:10:13;9.20;99.90
2022;DHT22;1015;49.756;6.994;2022-09-27T10:12:40;9.30;99.90
2022;DHT22;1015;49.756;6.994;2022-09-27T10:15:13;9.10;99.90
2022;DHT22;1015;49.756;6.994;2022-09-27T10:17:46;8.40;99.90
2022;DHT22;1015;49.756;6.994;2022-09-27T10:20:26;7.50;99.90
2022;DHT22;1015;49.756;6.994;2022-09-27T10:22:58;7.50;99.90
2022;DHT22;1015;49.756;6.994;2022-09-27T10:25:44;7.80;99.90
2022;DHT22;1015;49.756;6.994;2022-09-27T10:28:29;8.00;99.90
2022;DHT22;1015;49.756;6.994;2022-09-27T10:30:59;8.10;99.90
2022;DHT22;1015;49.756;6.994;2022-09-27T10:33:28;7.70;99.90
2022;DHT22;1015;49.756;6.994;2022-09-27T10:35:57;7.40;99.90
2022;DHT22;1015;49.756;6.994;2022-09-27T10:38:26;7.10;99.90
2022;DHT22;1015;49.756;6.994;2022-09-27T10:40:54;7.00;99.90
2022;DHT22;1015;49.756;6.994;2022-09-27T10:43:29;6.70;99.90
2022;DHT22;1015;49.756;6.994;2022-09-27T10:46:08;6.50;99.90
2022;DHT22;1015;49.756;6.994;2022-09-27T10:48:39;6.60;99.90
2022;DHT22;1015;49.756;6.994;2022-09-27T10:51:21;6.70;99.90
2022;DHT22;1015;49.756;6.994;2022-09-27T10:53:49;6.80;99.90
2022;DHT22;1015;49.756;6.994;2022-09-27T10:56:22;7.00;99.90
2022;DHT22;1015;49.756;6.994;2022-09-27T10:58:49;7.20;99.90
2022;DHT22;1015;49.756;6.994;2022-09-27T11:01:17;7.30;99.90
2022;DHT22;1015;49.756;6.994;2022-09-27T11:03:48;7.40;99.90
2022;DHT22;1015;49.756;6.994;2022-09-27T11:06:29;7.30;99.90
2022;DHT22;1015;49.756;6.994;2022-09-27T11:09:14;7.70;99.90
2022;DHT22;1015;49.756;6.994;2022-09-27T11:11:43;8.00;99.90
2022;DHT22;1015;49.756;6.994;2022-09-27T11:14:18;8.30;99.90
2022;DHT22;1015;49.756;6.994;2022-09-27T11:16:59;8.60;99.90
2022;DHT22;1015;49.756;6.994;2022-09-27T11:19:40;8.70;99.90
2022;DHT22;1015;49.756;6.994;2022-09-27T11:22:18;8.80;99.90
2022;DHT22;1015;49.756;6.994;2022-09-27T11:24:59;8.90;99.90
2022;DHT22;1015;49.756;6.994;2022-09-27T11:27:38;9.10;99.90
2022;DHT22;1015;49.756;6.994;2022-09-27T11:30:10;9.40;99.90
2022;DHT22;1015;49.756;6.994;2022-09-27T11:32:54;9.80;99.90
2022;DHT22;1015;49.756;6.994;2022-09-27T11:35:32;9.80;99.90
2022;DHT22;1015;49.756;6.994;2022-09-27T11:38:16;9.40;99.90
2022;DHT22;1015;49.756;6.994;2022-09-27T11:40:56;9.90;99.90
2022;DHT22;1015;49.756;6.994;2022-09-27T11:43:54;10.20;99.90
2022;DHT22;1015;49.756;6.994;2022-09-27T11:46:25;10.40;99.90
2022;DHT22;1015;49.756;6.994;2022-09-27T11:49:13;10.60;99.90
2022;DHT22;1015;49.756;6.994;2022-09-27T11:52:01;10.70;99.90
2022;DHT22;1015;49.756;6.994;2022-09-27T11:54:40;10.40;99.90
2022;DHT22;1015;49.756;6.994;2022-09-27T11:57:14;10.30;99.90
2022;DHT22;1015;49.756;6.994;2022-09-27T12:00:03;11.00;99.90
2022;DHT22;1015;49.756;6.994;2022-09-27T12:02:51;11.30;99.90
2022;DHT22;1015;49.756;6.994;2022-09-27T12:05:28;11.00;99.90
2022;DHT22;1015;49.756;6.994;2022-09-27T12:08:09;10.50;99.90
2022;DHT22;1015;49.756;6.994;2022-09-27T12:10:40;10.90;99.90
2022;DHT22;1015;49.756;6.994;2022-09-27T12:13:12;11.10;99.90
2022;DHT22;1015;49.756;6.994;2022-09-27T12:15:41;10.80;99.90
2022;DHT22;1015;49.756;6.994;2022-09-27T12:18:14;10.70;99.90
2022;DHT22;1015;49.756;6.994;2022-09-27T12:20:43;10.80;99.90
2022;DHT22;1015;49.756;6.994;2022-09-27T12:23:16;10.50;99.90
2022;DHT22;1015;49.756;6.994;2022-09-27T12:25:48;11.10;99.90
2022;DHT22;1015;49.756;6.994;2022-09-27T12:28:20;11.50;99.90
2022;DHT22;1015;49.756;6.994;2022-09-27T12:30:56;10.90;99.90
2022;DHT22;1015;49.756;6.994;2022-09-27T12:33:28;11.10;99.90
2022;DHT22;1015;49.756;6.994;2022-09-27T12:36:01;11.10;99.90
2022;DHT22;1015;49.756;6.994;2022-09-27T12:38:36;11.00;99.90
2022;DHT22;1015;49.756;6.994;2022-09-27T12:41:06;10.70;99.90
2022;DHT22;1015;49.756;6.994;2022-09-27T12:43:35;10.50;99.90
2022;DHT22;1015;49.756;6.994;2022-09-27T12:46:07;10.10;99.90
2022;DHT22;1015;49.756;6.994;2022-09-27T12:48:45;9.40;99.90
2022;DHT22;1015;49.756;6.994;2022-09-27T12:51:14;8.50;99.90
2022;DHT22;1015;49.756;6.994;2022-09-27T12:53:55;7.30;99.90
2022;DHT22;1015;49.756;6.994;2022-09-27T12:56:40;6.60;99.90
2022;DHT22;1015;49.756;6.994;2022-09-27T12:59:23;6.20;99.90
2022;DHT22;1015;49.756;6.994;2022-09-27T13:02:15;6.00;99.90
2022;DHT22;1015;49.756;6.994;2022-09-27T13:05:00;5.90;99.90
2022;DHT22;1015;49.756;6.994;2022-09-27T13:07:41;5.80;99.90
2022;DHT22;1015;49.756;6.994;2022-09-27T13:10:36;5.90;99.90
2022;DHT22;1015;49.756;6.994;2022-09-27T13:13:10;6.10;99.90
2022;DHT22;1015;49.756;6.994;2022-09-27T13:15:37;6.60;99.90
2022;DHT22;1015;49.756;6.994;2022-09-27T13:18:20;6.80;99.90
2022;DHT22;1015;49.756;6.994;2022-09-27T13:20:56;7.30;99.90
2022;DHT22;1015;49.756;6.994;2022-09-27T13:23:56;7.90;99.90
2022;DHT22;1015;49.756;6.994;2022-09-27T13:26:57;7.80;99.90
2022;DHT22;1015;49.756;6.994;2022-09-27T13:29:28;7.50;99.90
2022;DHT22;1015;49.756;6.994;2022-09-27T13:34:44;8.00;99.90
2022;DHT22;1015;49.756;6.994;2022-09-27T13:37:42;8.00;99.90
2022;DHT22;1015;49.756;6.994;2022-09-27T13:40:27;8.30;99.90
2022;DHT22;1015;49.756;6.994;2022-09-27T13:46:15;8.60;99.90
2022;DHT22;1015;49.756;6.994;2022-09-27T13:48:48;8.80;99.90
2022;DHT22;1015;49.756;6.994;2022-09-27T13:51:22;9.20;99.90
2022;DHT22;1015;49.756;6.994;2022-09-27T13:53:56;8.90;99.90
2022;DHT22;1015;49.756;6.994;2022-09-27T13:56:48;9.20;99.90
2022;DHT22;1015;49.756;6.994;2022-09-27T13:59:20;9.20;99.90
2022;DHT22;1015;49.756;6.994;2022-09-27T14:01:51;8.70;99.90
2022;DHT22;1015;49.756;6.994;2022-09-27T14:04:21;9.00;99.90
2022;DHT22;1015;49.756;6.994;2022-09-27T14:06:51;8.80;99.90
2022;DHT22;1015;49.756;6.994;2022-09-27T14:09:25;8.90;99.90
2022;DHT22;1015;49.756;6.994;2022-09-27T14:11:55;8.90;99.90
2022;DHT22;1015;49.756;6.994;2022-09-27T14:14:27;9.00;99.90
2022;DHT22;1015;49.756;6.994;2022-09-27T14:16:57;9.10;99.90
2022;DHT22;1015;49.756;6.994;2022-09-27T14:19:24;9.00;99.90
2022;DHT22;1015;49.756;6.994;2022-09-27T14:21:52;9.30;99.90
2022;DHT22;1015;49.756;6.994;2022-09-27T14:24:28;9.10;99.90
2022;DHT22;1015;49.756;6.994;2022-09-27T14:27:12;8.90;99.90
2022;DHT22;1015;49.756;6.994;2022-09-27T14:29:45;8.60;99.90
2022;DHT22;1015;49.756;6.994;2022-09-27T14:32:14;8.70;99.90
2022;DHT22;1015;49.756;6.994;2022-09-27T14:34:42;8.70;99.90
2022;DHT22;1015;49.756;6.994;2022-09-27T14:37:23;8.80;99.90
2022;DHT22;1015;49.756;6.994;2022-09-27T14:39:55;8.90;99.90
2022;DHT22;1015;49.756;6.994;2022-09-27T14:42:24;9.10;99.90
2022;DHT22;1015;49.756;6.994;2022-09-27T14:45:04;9.40;99.90
2022;DHT22;1015;49.756;6.994;2022-09-27T14:47:32;8.90;99.90
2022;DHT22;1015;49.756;6.994;2022-09-27T14:50:00;8.80;99.90
2022;DHT22;1015;49.756;6.994;2022-09-27T14:52:31;8.70;99.90
2022;DHT22;1015;49.756;6.994;2022-09-27T14:55:00;8.40;99.90
2022;DHT22;1015;49.756;6.994;2022-09-27T14:57:30;8.30;99.90
2022;DHT22;1015;49.756;6.994;2022-09-27T15:00:09;7.50;99.90
2022;DHT22;1015;49.756;6.994;2022-09-27T15:02:41;7.00;99.90
2022;DHT22;1015;49.756;6.994;2022-09-27T15:05:13;6.70;99.90
2022;DHT22;1015;49.756;6.994;2022-09-27T15:07:41;6.70;99.90
2022;DHT22;1015;49.756;6.994;2022-09-27T15:10:12;6.60;99.90
2022;DHT22;1015;49.756;6.994;2022-09-27T15:12:42;6.60;99.90
2022;DHT22;1015;49.756;6.994;2022-09-27T15:15:17;6.70;99.90
2022;DHT22;1015;49.756;6.994;2022-09-27T15:17:45;6.60;99.90
2022;DHT22;1015;49.756;6.994;2022-09-27T15:20:20;6.70;99.90
2022;DHT22;1015;49.756;6.994;2022-09-27T15:22:49;6.70;99.90
2022;DHT22;1015;49.756;6.994;2022-09-27T15:25:26;6.50;99.90
2022;DHT22;1015;49.756;6.994;2022-09-27T15:28:01;6.70;99.90
2022;DHT22;1015;49.756;6.994;2022-09-27T15:30:36;6.80;99.90
2022;DHT22;1015;49.756;6.994;2022-09-27T15:33:03;7.00;99.90
2022;DHT22;1015;49.756;6.994;2022-09-27T15:35:32;7.40;99.90
2022;DHT22;1015;49.756;6.994;2022-09-27T15:38:12;7.60;99.90
2022;DHT22;1015;49.756;6.994;2022-09-27T15:41:07;7.80;99.90
2022;DHT22;1015;49.756;6.994;2022-09-27T15:43:41;7.60;99.90
2022;DHT22;1015;49.756;6.994;2022-09-27T15:46:34;7.80;99.90
2022;DHT22;1015;49.756;6.994;2022-09-27T15:49:21;7.80;99.90
2022;DHT22;1015;49.756;6.994;2022-09-27T15:51:54;7.60;99.90
2022;DHT22;1015;49.756;6.994;2022-09-27T15:54:22;7.40;99.90
2022;DHT22;1015;49.756;6.994;2022-09-27T15:56:51;7.30;99.90
2022;DHT22;1015;49.756;6.994;2022-09-27T15:59:22;7.30;99.90
2022;DHT22;1015;49.756;6.994;2022-09-27T16:01:54;7.40;99.90
2022;DHT22;1015;49.756;6.994;2022-09-27T16:04:22;7.40;99.90
2022;DHT22;1015;49.756;6.994;2022-09-27T16:06:49;7.40;99.90
2022;DHT22;1015;49.756;6.994;2022-09-27T16:09:17;7.30;99.90
2022;DHT22;1015;49.756;6.994;2022-09-27T16:11:46;7.20;99.90
2022;DHT22;1015;49.756;6.994;2022-09-27T16:14:14;7.10;99.90
2022;DHT22;1015;49.756;6.994;2022-09-27T16:16:44;7.20;99.90
2022;DHT22;1015;49.756;6.994;2022-09-27T16:19:14;7.10;99.90
2022;DHT22;1015;49.756;6.994;2022-09-27T16:21:40;7.30;99.90
2022;DHT22;1015;49.756;6.994;2022-09-27T16:24:08;7.70;99.90
2022;DHT22;1015;49.756;6.994;2022-09-27T16:26:36;7.60;99.90
2022;DHT22;1015;49.756;6.994;2022-09-27T16:29:03;7.60;99.90
2022;DHT22;1015;49.756;6.994;2022-09-27T16:31:30;7.50;99.90
2022;DHT22;1015;49.756;6.994;2022-09-27T16:33:57;7.30;99.90
2022;DHT22;1015;49.756;6.994;2022-09-27T16:36:26;7.10;99.90
2022;DHT22;1015;49.756;6.994;2022-09-27T16:38:53;6.90;99.90
2022;DHT22;1015;49.756;6.994;2022-09-27T16:41:21;6.80;99.90
2022;DHT22;1015;49.756;6.994;2022-09-27T16:43:48;6.70;99.90
2022;DHT22;1015;49.756;6.994;2022-09-27T16:46:15;6.60;99.90
2022;DHT22;1015;49.756;6.994;2022-09-27T16:48:44;6.70;99.90
2022;DHT22;1015;49.756;6.994;2022-09-27T16:51:15;6.70;99.90
2022;DHT22;1015;49.756;6.994;2022-09-27T16:54:01;6.50;99.90
2022;DHT22;1015;49.756;6.994;2022-09-27T16:56:30;6.40;99.90
2022;DHT22;1015;49.756;6.994;2022-09-27T16:58:58;6.20;99.90
2022;DHT22;1015;49.756;6.994;2022-09-27T17:01:29;6.10;99.90